Stunt Ranch Reserve, Santa Monica Mtns, California Weather observations

Data are for 10 minute period ending at time listed.
 Day   Time   Solar   Ave.   Ave.  Ave.  Vector  Max.   Baro.   Total    
  of    of     Rad.   Air    Rel.  Wind   Wind   Wind  Press.  Precip.   
Year   Day            Temp.  Hum.  Speed  Dir.   Gust                    
2016   (PST)  Kw/m2    F      %     mph   deg.    mph    mb.     in.     
-------------------------------------------------------------------------
  43   21:10   0.00   66.2    22    0.9   239     2.5   972.6    0.00 
  43   21:20   0.00   66.8    20    0.9   186     2.2   972.6    0.00 
  43   21:30   0.00   68.1    19    1.4   216     3.8   972.6    0.00 
  43   21:40   0.00   66.5    22    0.7   248     1.7   972.6    0.00 
  43   21:50   0.00   65.8    24    1.2   230     3.5   972.6    0.00 
  43   22:00   0.00   64.2    25    0.7   241     1.8   972.6    0.00 
  43   22:10   0.00   64.2    24    0.9   178     2.6   972.6    0.00 
  43   22:20   0.00   66.1    23    1.2   173     2.3   972.6    0.00 
  43   22:30   0.00   67.5    21    0.9   198     1.9   972.6    0.00 
  43   22:40   0.00   68.2    20    1.1   192     2.6   972.6    0.00 
  43   22:50   0.00   67.4    21    1.1   204     3.0   972.6    0.00 
  43   23:00   0.00   65.5    24    0.4   286     1.4   972.6    0.00 
  43   23:10   0.00   63.6    26    0.9   303     2.0   972.6    0.00 
  43   23:20   0.00   61.8    28    0.8   262     2.5   972.6    0.00 
  43   23:30   0.00   60.7    30    1.9   122     3.1   972.6    0.00 
  43   23:40   0.00   61.2    29    1.0   123     2.9   972.6    0.00 
  43   23:50   0.00   60.7    30    1.1   266     2.2   972.6    0.00 
  44    0:00   0.00   60.8    29    1.2   148     2.2   972.6    0.00 
  44    0:10   0.00   62.2    26    0.3   218     1.2   972.6    0.00 
  44    0:20   0.00   63.8    24    2.1   184     3.3   972.6    0.00 
  44    0:30   0.00   64.6    23    1.6   178     2.7   972.6    0.00 
  44    0:40   0.00   64.5    24    1.0   299     2.1   972.6    0.00 
  44    0:50   0.00   64.3    24    0.9   226     3.3   972.6    0.00 
  44    1:00   0.00   64.6    24    0.5   246     2.5   972.6    0.00 
  44    1:10   0.00   63.1    26    0.0     0     0.0   972.6    0.00 
  44    1:20   0.00   62.4    27    0.1   235     1.3   972.6    0.00 
  44    1:30   0.00   62.5    26    0.8   288     2.5   972.2    0.00 
  44    1:40   0.00   60.6    30    1.2   318     2.5   972.2    0.00 
  44    1:50   0.00   60.2    29    1.2   144     2.6   972.2    0.00 
  44    2:00   0.00   60.3    29    2.0   118     4.3   972.2    0.00 
  44    2:10   0.00   62.4    26    0.3   117     1.4   972.2    0.00 
  44    2:20   0.00   62.5    28    1.2   288     2.2   972.2    0.00 
  44    2:30   0.00   60.2    31    0.5    34     1.5   972.2    0.00 
  44    2:40   0.00   59.7    31    0.5   183     1.7   972.2    0.00 
  44    2:50   0.00   59.9    32    0.6   271     1.7   971.9    0.00 
  44    3:00   0.00   60.0    31    0.4   293     1.9   971.9    0.00 
  44    3:10   0.00   59.2    33    0.8   278     1.7   971.9    0.00 
  44    3:20   0.00   58.3    33    1.0   266     2.6   971.9    0.00 
  44    3:30   0.00   57.9    34    1.8   121     4.1   971.9    0.00 
  44    3:40   0.00   58.1    34    2.5   115     4.7   971.9    0.00 
  44    3:50   0.00   57.6    34    3.2   125     4.7   971.9    0.00 
  44    4:00   0.00   58.7    32    0.7    49     2.0   971.9    0.00 
  44    4:10   0.00   59.8    32    1.4   288     2.0   971.9    0.00 
  44    4:20   0.00   59.6    32    1.1   263     2.0   971.9    0.00 
  44    4:30   0.00   59.3    32    0.7   326     1.8   972.2    0.00 
  44    4:40   0.00   59.9    31    0.8   307     1.7   972.2    0.00 
  44    4:50   0.00   60.0    31    0.4   159     1.6   972.2    0.00 
  44    5:00   0.00   60.2    30    0.4   247     1.8   972.2    0.00 
  44    5:10   0.00   58.9    32    0.2   309     0.7   972.2    0.00 
  44    5:20   0.00   58.0    33    0.1   256     1.1   972.2    0.00 
  44    5:30   0.00   57.3    34    0.3   352     1.8   972.2    0.00 
  44    5:40   0.00   56.3    36    1.4   288     3.5   972.6    0.00 
  44    5:50   0.00   55.9    36    1.5   251     3.1   972.6    0.00 
  44    6:00   0.00   56.3    35    0.7   130     1.9   972.6    0.00 
  44    6:10   0.00   56.6    34    0.4   140     2.2   972.9    0.00 
  44    6:20   0.00   56.8    34    1.4   114     2.3   972.9    0.00 
  44    6:30   0.00   57.2    34    1.8   126     3.0   972.9    0.00 
  44    6:40   0.00   57.7    34    1.1   161     3.7   972.9    0.00 
  44    6:50   0.01   56.7    36    1.8   266     3.4   972.9    0.00 
  44    7:00   0.01   55.8    38    0.6   278     2.3   972.9    0.00 
  44    7:10   0.01   56.1    37    2.2   136     3.5   972.9    0.00 
  44    7:20   0.02   57.1    36    1.2   125     3.9   972.9    0.00 
  44    7:30   0.03   57.9    36    0.6   275     1.4   972.9    0.00 
  44    7:40   0.03   57.4    37    0.8   148     2.3   972.9    0.00 
  44    7:50   0.10   58.0    36    1.5    75     2.9   972.9    0.00 
  44    8:00   0.22   62.8    32    0.9    94     3.2   972.9    0.00 
  44    8:10   0.28   67.0    29    0.8   300     1.8   972.9    0.00 
  44    8:20   0.28   67.9    28    0.4   148     1.6   972.9    0.00 
  44    8:30   0.28   69.2    29    1.2   287     2.9   973.3    0.00 
  44    8:40   0.31   69.5    29    1.4   187     2.4   973.3    0.00 
  44    8:50   0.37   67.5    31    1.2   111     2.3   973.3    0.00 
  44    9:00   0.39   68.7    31    1.2    74     2.4   972.9    0.00 
  44    9:10   0.43   69.8    31    0.6    41     1.6   972.9    0.00 
  44    9:20   0.46   70.9    27    0.6   290     1.8   972.9    0.00 
  44    9:30   0.49   72.2    22    0.9   234     3.4   972.9    0.00 
  44    9:40   0.53   73.2    25    2.4   305     3.9   972.9    0.00 
  44    9:50   0.54   74.6    21    1.2   297     3.3   972.6    0.00 
  44   10:00   0.56   74.0    23    1.1   337     3.1   972.6    0.00 
  44   10:10   0.52   75.1    23    1.2    14     4.6   972.2    0.00 
  44   10:20   0.62   75.7    21    2.0   270     4.5   972.2    0.00 
  44   10:30   0.47   76.1    18    2.6   288     4.5   972.2    0.00 
  44   10:40   0.36   75.0    20    1.9   286     5.3   972.2    0.00 
  44   10:50   0.56   77.0    21    2.5   271     3.7   972.2    0.00 
  44   11:00   0.34   78.1    22    2.1   274     3.7   971.9    0.00 
  44   11:10   0.49   77.0    23    1.2   150     3.9   971.9    0.00 
  44   11:20   0.70   78.7    21    0.9   283     2.9   971.6    0.00 
  44   11:30   0.70   80.6    16    1.8   276     4.2   971.2    0.00 
  44   11:40   0.70   82.4    15    1.6   281     5.5   971.2    0.00 
  44   11:50   0.70   81.6    16    2.9   328     6.1   971.2    0.00 
  44   12:00   0.71   82.4    15    2.4   284     6.0   970.9    0.00 
  44   12:10   0.71   82.3    16    4.8   288    11.0   970.9    0.00 
  44   12:20   0.71   83.5    13    5.2   326    11.5   970.9    0.00 
  44   12:30   0.71   84.9    11    5.3   315    12.4   970.9    0.00 
  44   12:40   0.70   85.1    13    2.6   330     9.0   970.9    0.00 
  44   12:50   0.69   84.6    22    3.8   296    10.7   971.2    0.00 
  44   13:00   0.68   84.7    23    2.5   285     6.4   971.2    0.00 
  44   13:10   0.67   84.0    22    3.4   292     7.1   971.2    0.00 
  44   13:20   0.62   83.1    21    2.2   310     5.2   971.2    0.00 
  44   13:30   0.64   84.4    20    1.9   296     5.4   971.2    0.00 
  44   13:40   0.63   84.6    19    1.7   319     4.5   971.2    0.00 
  44   13:50   0.61   85.2    17    2.4   287     7.2   971.2    0.00 
  44   14:00   0.59   85.4    18    2.6   287     8.0   971.2    0.00 
  44   14:10   0.57   84.7    19    2.5   286     6.6   971.2    0.00 
  44   14:20   0.55   83.8    21    2.1   289     5.0   971.2    0.00 
  44   14:30   0.52   83.0    23    2.0   299     7.8   970.9    0.00 
  44   14:40   0.50   82.5    24    1.9   286     6.9   971.2    0.00 
  44   14:50   0.47   82.1    25    3.2   282    10.2   971.2    0.00 
  44   15:00   0.45   80.7    27    3.3   286    11.0   971.2    0.00 
  44   15:10   0.42   80.7    26    3.7   284     9.9   971.2    0.00 
  44   15:20   0.39   80.0    23    3.0   298     9.6   971.2    0.00 
  44   15:30   0.37   79.2    22    2.3   297     8.7   971.2    0.00 
  44   15:40   0.34   79.0    22    2.2   305     7.3   970.9    0.00 
  44   15:50   0.31   77.8    22    1.9   308     5.9   970.9    0.00 
  44   16:00   0.28   77.1    21    2.3   294     9.6   970.9    0.00 
  44   16:10   0.24   76.1    21    1.9   290     5.2   970.9    0.00 
  44   16:20   0.21   74.8    21    2.6   279     6.6   970.5    0.00 
  44   16:30   0.18   73.6    22    3.9   267     8.1   970.5    0.00 
  44   16:40   0.15   73.3    22    2.9   271     5.8   970.5    0.00 
  44   16:50   0.12   71.5    25    1.8   284     5.1   970.2    0.00 
  44   17:00   0.03   70.3    25    0.7   242     2.9   970.2    0.00 
  44   17:10   0.02   70.2    24    1.2   267     2.0   969.9    0.00 
  44   17:20   0.01   69.7    24    0.2   287     1.6   970.2    0.00 
  44   17:30   0.01   69.3    24    0.3   271     1.0   970.2    0.00 
  44   17:40   0.01   68.5    25    1.7   186     3.5   970.2    0.00 
  44   17:50   0.00   67.7    25    1.4   206     2.9   970.5    0.00 
  44   18:00   0.00   69.4    24    0.7   241     2.0   970.9    0.00 
  44   18:10   0.00   68.8    25    1.8   267     3.4   970.9    0.00 
  44   18:20   0.00   67.9    26    2.0   274     4.4   971.2    0.00 
  44   18:30   0.00   69.1    23    0.9   269     2.3   971.2    0.00 
  44   18:40   0.00   70.3    22    1.5   297     5.7   971.6    0.00 
  44   18:50   0.00   71.1    20    3.0     7     9.4   971.9    0.00 
  44   19:00   0.00   71.7    19    4.3   351     9.6   971.9    0.00 
  44   19:10   0.00   71.2    20    3.7   345    11.2   971.6    0.00 
  44   19:20   0.00   71.7    19    1.6    66     7.4   971.2    0.00 
  44   19:30   0.00   72.2    19    1.2   255     5.3   971.2    0.00 
  44   19:40   0.00   69.5    23    1.8   265     6.0   971.6    0.00 
  44   19:50   0.00   68.9    22    2.6   215     6.0   971.6    0.00 
  44   20:00   0.00   71.2    21    1.8   166     5.3   971.6    0.00 
  44   20:10   0.00   71.9    21    1.8    19     5.8   971.6    0.00 
  44   20:20   0.00   70.8    22    1.6   275     3.9   971.6    0.00 
  44   20:30   0.00   70.0    22    1.8   233     3.4   971.6    0.00 
  44   20:40   0.00   69.4    22    3.4   214     4.7   971.9    0.00 
  44   20:50   0.00   68.4    23    2.4   262     4.7   971.9    0.00 
  44   21:00   0.00   67.2    25    2.2   213     4.9   971.6    0.00 

Return to Stunt Ranch Reserve graphs page.


Western Regional Climate Center,wrcc@dri.edu